createdAt,value
2022-12-04T00:04:11.093Z,34.40
2022-12-04T00:09:15.324Z,29.17
2022-12-04T00:14:18.252Z,40.37
2022-12-04T00:19:20.975Z,36.23
2022-12-04T00:24:25.070Z,38.60
2022-12-04T00:29:27.941Z,35.90
2022-12-04T00:34:30.697Z,36.77
2022-12-04T00:39:34.886Z,32.70
2022-12-04T00:44:37.671Z,31.80
2022-12-04T00:49:40.390Z,38.00
2022-12-04T00:54:44.564Z,39.77
2022-12-04T00:59:47.364Z,37.67
2022-12-04T01:04:50.110Z,34.40
2022-12-04T01:09:54.561Z,31.70
2022-12-04T01:14:57.408Z,35.03
2022-12-04T01:20:00.127Z,38.03
2022-12-04T01:25:04.624Z,34.90
2022-12-04T01:30:08.582Z,28.27
2022-12-04T01:35:11.358Z,34.07
2022-12-04T01:40:17.029Z,35.63
2022-12-04T01:45:38.289Z,38.00
2022-12-04T01:50:42.269Z,36.97
2022-12-04T01:55:46.805Z,34.50
2022-12-04T02:00:56.878Z,36.90
2022-12-04T02:06:01.211Z,36.53
2022-12-04T02:11:13.705Z,33.33
2022-12-04T02:16:21.441Z,32.53
2022-12-04T02:21:29.783Z,36.60
2022-12-04T02:26:45.876Z,39.67
2022-12-04T02:31:52.966Z,37.07
2022-12-04T02:37:00.102Z,35.93
2022-12-04T02:42:08.770Z,35.43
2022-12-04T02:47:14.895Z,36.17
2022-12-04T02:52:22.008Z,29.90
2022-12-04T02:57:29.987Z,31.93
2022-12-04T03:02:36.575Z,37.00
2022-12-04T03:07:42.936Z,32.87
2022-12-04T03:12:50.590Z,36.70
2022-12-04T03:17:57.154Z,34.87
2022-12-04T03:23:04.712Z,39.10
2022-12-04T03:28:10.989Z,35.97
2022-12-04T03:33:18.440Z,37.13
2022-12-04T03:38:24.834Z,40.20
2022-12-04T03:43:29.905Z,40.63
2022-12-04T03:48:40.010Z,39.17
2022-12-04T03:53:45.037Z,44.30
2022-12-04T03:58:53.829Z,45.17
2022-12-04T04:03:59.786Z,47.50
2022-12-04T04:09:06.279Z,45.07
2022-12-04T04:14:30.854Z,42.13
2022-12-04T04:20:05.805Z,43.60
2022-12-04T04:25:10.190Z,43.20
2022-12-04T04:30:13.259Z,44.00
2022-12-04T04:35:21.982Z,46.13
2022-12-04T04:40:28.240Z,48.97
2022-12-04T04:45:35.183Z,44.70
2022-12-04T04:50:39.990Z,40.63
2022-12-04T04:55:43.535Z,41.30
2022-12-04T05:00:51.715Z,42.80
2022-12-04T05:05:55.938Z,40.33
2022-12-04T05:10:58.655Z,42.80
2022-12-04T05:16:02.847Z,51.03
2022-12-04T05:21:08.168Z,45.57
2022-12-04T05:26:11.045Z,47.70
2022-12-04T05:31:13.924Z,50.63
2022-12-04T05:36:18.074Z,46.33
2022-12-04T05:41:20.792Z,48.37
2022-12-04T05:46:23.585Z,47.47
2022-12-04T05:51:27.748Z,48.60
2022-12-04T05:56:30.593Z,49.97
2022-12-04T06:01:33.419Z,45.37
2022-12-04T06:06:38.377Z,40.70
2022-12-04T06:11:42.590Z,53.17
2022-12-04T06:16:47.498Z,58.57
2022-12-04T06:21:53.441Z,46.77
2022-12-04T06:27:26.345Z,49.37
2022-12-04T06:32:21.983Z,53.63
2022-12-04T06:37:26.415Z,57.80
2022-12-04T06:42:29.187Z,58.10
2022-12-04T06:47:32.118Z,49.07
2022-12-04T06:52:36.235Z,50.97
2022-12-04T06:57:39.002Z,50.87
2022-12-04T07:02:41.795Z,55.07
2022-12-04T07:07:45.957Z,50.50
2022-12-04T07:12:48.783Z,55.20
2022-12-04T07:17:51.518Z,46.13
2022-12-04T07:22:55.769Z,43.37
2022-12-04T07:27:58.486Z,53.50
2022-12-04T07:33:01.221Z,45.93
2022-12-04T07:38:05.729Z,49.33
2022-12-04T07:43:08.533Z,51.93
2022-12-04T07:48:11.383Z,51.80
2022-12-04T07:53:15.500Z,54.07
2022-12-04T07:58:18.529Z,58.13
2022-12-04T08:03:21.458Z,44.20
2022-12-04T08:08:25.567Z,55.80
2022-12-04T08:13:28.439Z,51.30
2022-12-04T08:18:31.306Z,51.40
2022-12-04T08:23:36.220Z,61.23
2022-12-04T08:28:39.708Z,48.83
2022-12-04T08:33:43.549Z,51.77
2022-12-04T08:38:48.460Z,48.90
2022-12-04T08:43:53.318Z,60.37
2022-12-04T08:48:56.180Z,48.00
2022-12-04T08:54:02.287Z,60.27
2022-12-04T08:59:05.338Z,52.27
2022-12-04T09:04:08.150Z,61.37
2022-12-04T09:09:12.712Z,56.10
2022-12-04T09:14:15.449Z,52.77
2022-12-04T09:19:18.321Z,57.63
2022-12-04T09:24:22.601Z,59.80
2022-12-04T09:29:27.139Z,56.67
2022-12-04T09:34:29.888Z,65.63
2022-12-04T09:39:34.115Z,57.17
2022-12-04T09:44:40.757Z,65.97
2022-12-04T09:49:47.602Z,64.53
2022-12-04T09:54:52.994Z,66.03
2022-12-04T09:59:56.719Z,62.20
2022-12-04T10:04:59.608Z,61.77
2022-12-04T10:10:06.860Z,63.23
2022-12-04T10:15:20.874Z,64.40
2022-12-04T10:20:34.525Z,61.93
2022-12-04T10:25:42.770Z,65.40
2022-12-04T10:30:46.750Z,51.23
2022-12-04T10:35:52.324Z,57.63
2022-12-04T10:40:59.172Z,60.77
2022-12-04T10:46:01.914Z,60.93
2022-12-04T10:51:05.166Z,59.17
2022-12-04T10:56:14.450Z,58.47
2022-12-04T11:01:17.192Z,62.27
2022-12-04T11:06:25.590Z,60.23
2022-12-04T11:11:31.010Z,57.90
2022-12-04T11:16:37.560Z,49.47
2022-12-04T11:21:40.420Z,61.53
2022-12-04T11:26:44.571Z,52.17
2022-12-04T11:31:51.425Z,56.90
2022-12-04T11:36:56.106Z,62.37
2022-12-04T11:42:06.231Z,62.07
2022-12-04T11:47:18.740Z,52.20
2022-12-04T11:52:27.649Z,51.03
2022-12-04T11:57:37.969Z,57.03
2022-12-04T12:02:55.519Z,56.83
2022-12-04T12:08:03.137Z,49.63
2022-12-04T12:13:14.579Z,62.17
2022-12-04T12:18:35.537Z,61.33
2022-12-04T12:23:47.967Z,62.80
2022-12-04T12:29:11.836Z,48.70
2022-12-04T12:34:19.469Z,57.37
2022-12-04T12:39:25.537Z,57.53
2022-12-04T12:44:35.600Z,54.97
2022-12-04T12:49:42.830Z,61.00
2022-12-04T12:54:49.656Z,53.13
2022-12-04T12:59:56.736Z,58.07
2022-12-04T13:05:01.764Z,52.87
2022-12-04T13:10:12.586Z,51.20
2022-12-04T13:15:18.914Z,50.53
2022-12-04T13:20:24.445Z,51.47
2022-12-04T13:25:37.902Z,65.17
2022-12-04T13:30:47.523Z,57.23
2022-12-04T13:36:03.331Z,70.20
2022-12-04T13:41:07.850Z,59.60
2022-12-04T13:46:25.567Z,51.43
2022-12-04T13:51:39.177Z,63.70
2022-12-04T13:56:43.314Z,58.80
2022-12-04T14:01:50.110Z,63.53
2022-12-04T14:06:53.499Z,65.53
2022-12-04T14:12:00.098Z,57.57
2022-12-04T14:17:05.341Z,66.47
2022-12-04T14:22:27.016Z,60.50
2022-12-04T14:27:43.154Z,58.90
2022-12-04T14:32:48.146Z,62.83
2022-12-04T14:37:54.275Z,68.73
2022-12-04T14:42:57.171Z,51.07
2022-12-04T14:48:23.087Z,57.50
2022-12-04T14:53:36.196Z,54.73
2022-12-04T14:58:39.736Z,59.60
2022-12-04T15:03:45.754Z,66.77
2022-12-04T15:08:53.046Z,60.20
2022-12-04T15:14:06.138Z,60.80
2022-12-04T15:19:18.481Z,66.77
2022-12-04T15:24:24.143Z,58.83
2022-12-04T15:29:28.491Z,55.23
2022-12-04T15:34:38.390Z,54.50
2022-12-04T15:39:41.363Z,58.73
2022-12-04T15:44:52.067Z,59.53
2022-12-04T15:49:56.394Z,54.67
2022-12-04T15:55:01.439Z,52.03
2022-12-04T16:00:06.236Z,55.13
2022-12-04T16:05:14.337Z,61.77
2022-12-04T16:10:23.696Z,57.40
2022-12-04T16:15:31.907Z,55.50
2022-12-04T16:20:37.714Z,58.57
2022-12-04T16:25:40.567Z,56.73
2022-12-04T16:30:43.419Z,58.90
2022-12-04T16:35:47.576Z,49.97
2022-12-04T16:40:50.533Z,63.87
2022-12-04T16:45:55.187Z,54.20
2022-12-04T16:50:59.315Z,60.13
2022-12-04T16:56:02.145Z,60.93
2022-12-04T17:01:06.415Z,53.60
2022-12-04T17:06:10.568Z,63.97
2022-12-04T17:11:14.309Z,64.60
2022-12-04T17:16:19.741Z,61.83
2022-12-04T17:21:24.253Z,55.50
2022-12-04T17:26:27.721Z,69.30
2022-12-04T17:31:31.490Z,51.63
2022-12-04T17:36:35.730Z,69.80
2022-12-04T17:41:38.577Z,62.17
2022-12-04T17:46:41.689Z,64.43
2022-12-04T17:51:46.113Z,56.90
2022-12-04T17:56:52.254Z,62.87
2022-12-04T18:01:57.537Z,67.83
2022-12-04T18:07:01.618Z,64.17
2022-12-04T18:12:04.612Z,60.90
2022-12-04T18:17:07.429Z,59.60
2022-12-04T18:22:11.600Z,66.70
2022-12-04T18:27:14.591Z,53.73
2022-12-04T18:32:17.485Z,52.73
2022-12-04T18:37:21.563Z,67.03
2022-12-04T18:42:24.262Z,54.77
2022-12-04T18:47:27.202Z,67.93
2022-12-04T18:52:31.338Z,60.50
2022-12-04T18:57:34.082Z,70.00
2022-12-04T19:02:36.944Z,70.90
2022-12-04T19:07:41.223Z,66.73
2022-12-04T19:12:44.061Z,63.27
2022-12-04T19:17:47.109Z,67.37
2022-12-04T19:22:51.234Z,56.83
2022-12-04T19:27:54.011Z,51.27
2022-12-04T19:32:56.816Z,58.23
2022-12-04T19:38:00.992Z,53.73
2022-12-04T19:43:03.784Z,55.50
2022-12-04T19:48:06.858Z,54.40
2022-12-04T19:53:11.424Z,61.10
2022-12-04T19:58:14.381Z,52.17
2022-12-04T20:03:17.290Z,47.50
2022-12-04T20:08:21.553Z,61.20
2022-12-04T20:13:24.286Z,57.40
2022-12-04T20:18:27.019Z,59.73
2022-12-04T20:23:31.438Z,55.77
2022-12-04T20:28:34.599Z,61.97
2022-12-04T20:33:37.772Z,63.13
2022-12-04T20:38:42.465Z,53.63
2022-12-04T20:43:46.541Z,58.00
2022-12-04T20:48:49.968Z,62.80
2022-12-04T20:53:55.391Z,44.50
2022-12-04T20:58:58.359Z,57.30
2022-12-04T21:04:01.359Z,57.33
2022-12-04T21:09:06.656Z,50.20
2022-12-04T21:14:42.650Z,56.80
2022-12-04T21:19:46.760Z,46.40
2022-12-04T21:24:50.893Z,50.20
2022-12-04T21:29:54.218Z,51.93
2022-12-04T21:34:57.187Z,57.43
2022-12-04T21:40:01.622Z,50.23
2022-12-04T21:45:08.796Z,50.03
2022-12-04T21:50:11.812Z,48.70
2022-12-04T21:55:16.121Z,52.23
2022-12-04T22:00:19.475Z,49.13
2022-12-04T22:05:22.202Z,47.30
2022-12-04T22:10:26.580Z,52.17
2022-12-04T22:15:29.521Z,53.57
2022-12-04T22:20:32.358Z,53.23
2022-12-04T22:25:37.934Z,51.50
2022-12-04T22:30:40.860Z,53.77
2022-12-04T22:35:43.691Z,58.33
2022-12-04T22:40:48.109Z,49.00
2022-12-04T22:45:50.860Z,50.47
2022-12-04T22:50:57.840Z,56.07
2022-12-04T22:56:06.555Z,47.60
2022-12-04T23:01:10.932Z,49.60
2022-12-04T23:06:14.310Z,59.80
2022-12-04T23:11:20.497Z,51.30
2022-12-04T23:16:24.270Z,45.93
2022-12-04T23:21:27.621Z,44.03
2022-12-04T23:26:34.104Z,42.53
2022-12-04T23:31:37.236Z,45.33
2022-12-04T23:36:40.217Z,40.30
2022-12-04T23:41:44.403Z,44.43
2022-12-04T23:46:47.338Z,43.50
2022-12-04T23:51:50.241Z,36.90
2022-12-04T23:56:54.285Z,43.07
